createdAt,value
2022-09-15T00:00:26.994Z,19.92
2022-09-15T00:02:53.548Z,20.88
2022-09-15T00:05:20.905Z,22.10
2022-09-15T00:07:47.546Z,24.00
2022-09-15T00:10:14.204Z,22.58
2022-09-15T00:12:40.687Z,23.38
2022-09-15T00:15:07.961Z,24.15
2022-09-15T00:17:34.640Z,25.98
2022-09-15T00:20:01.274Z,24.67
2022-09-15T00:22:28.223Z,28.38
2022-09-15T00:24:54.738Z,22.85
2022-09-15T00:27:21.201Z,31.63
2022-09-15T00:29:47.634Z,24.55
2022-09-15T00:32:14.122Z,25.13
2022-09-15T00:34:40.555Z,26.55
2022-09-15T00:37:07.283Z,24.60
2022-09-15T00:39:34.049Z,25.73
2022-09-15T00:42:00.472Z,23.45
2022-09-15T00:44:35.869Z,24.83
2022-09-15T00:47:18.885Z,23.52
2022-09-15T00:49:49.235Z,26.33
2022-09-15T00:52:32.523Z,28.00
2022-09-15T00:55:17.177Z,26.92
2022-09-15T00:58:06.553Z,27.00
2022-09-15T01:00:33.947Z,28.42
2022-09-15T01:03:01.725Z,29.45
2022-09-15T01:05:48.397Z,25.83
2022-09-15T01:08:20.685Z,29.63
2022-09-15T01:10:47.172Z,24.65
2022-09-15T01:13:14.995Z,29.67
2022-09-15T01:16:19.466Z,25.75
2022-09-15T01:19:10.147Z,24.83
2022-09-15T01:21:44.653Z,27.55
2022-09-15T01:24:14.227Z,29.40
2022-09-15T01:29:51.182Z,22.80
2022-09-15T01:33:01.446Z,21.65
2022-09-15T01:35:37.273Z,18.77
2022-09-15T01:38:07.431Z,25.10
2022-09-15T01:41:01.007Z,18.98
2022-09-15T01:43:29.800Z,19.65
2022-09-15T01:45:59.231Z,18.40
2022-09-15T01:48:28.310Z,21.42
2022-09-15T01:50:58.980Z,22.08
2022-09-15T01:53:26.508Z,25.10
2022-09-15T01:55:53.940Z,26.52
2022-09-15T01:58:21.270Z,28.80
2022-09-15T02:00:53.821Z,25.50
2022-09-15T02:03:26.963Z,35.92
2022-09-15T02:06:02.732Z,28.15
2022-09-15T02:08:45.135Z,34.92
2022-09-15T02:11:16.844Z,28.63
2022-09-15T02:13:56.218Z,33.03
2022-09-15T02:16:25.710Z,28.13
2022-09-15T02:21:53.262Z,26.35
2022-09-15T02:24:26.770Z,26.27
2022-09-15T02:26:55.210Z,22.52
2022-09-15T02:29:26.233Z,23.17
2022-09-15T02:31:56.416Z,26.50
2022-09-15T02:34:32.183Z,20.98
2022-09-15T02:36:59.117Z,23.83
2022-09-15T02:39:34.260Z,24.88
2022-09-15T02:42:02.388Z,23.35
2022-09-15T02:44:33.494Z,63.42
2022-09-15T02:47:01.866Z,20.42
2022-09-15T02:49:28.345Z,28.27
2022-09-15T02:51:54.877Z,21.73
2022-09-15T02:54:21.568Z,25.50
2022-09-15T02:56:48.026Z,23.48
2022-09-15T02:59:14.516Z,26.10
2022-09-15T03:01:41.064Z,27.27
2022-09-15T03:04:07.767Z,27.67
2022-09-15T03:06:37.132Z,25.98
2022-09-15T03:09:07.094Z,27.23
2022-09-15T03:11:34.727Z,25.45
2022-09-15T03:14:05.908Z,23.45
2022-09-15T03:16:34.517Z,26.52
2022-09-15T03:19:02.076Z,28.60
2022-09-15T03:21:29.613Z,28.27
2022-09-15T03:23:59.228Z,27.65
2022-09-15T03:28:53.173Z,24.85
2022-09-15T03:31:19.937Z,26.17
2022-09-15T03:33:47.284Z,29.63
2022-09-15T03:36:13.681Z,32.40
2022-09-15T03:38:40.137Z,38.17
2022-09-15T03:41:10.777Z,31.83
2022-09-15T03:43:38.380Z,28.98
2022-09-15T03:46:06.618Z,31.92
2022-09-15T03:48:35.035Z,28.70
2022-09-15T03:51:03.104Z,31.80
2022-09-15T03:53:34.887Z,30.60
2022-09-15T03:56:12.153Z,32.13
2022-09-15T03:58:38.918Z,26.85
2022-09-15T04:01:05.421Z,27.48
2022-09-15T04:03:32.435Z,28.48
2022-09-15T04:05:58.853Z,23.90
2022-09-15T04:08:25.559Z,25.85
2022-09-15T04:10:52.080Z,28.30
2022-09-15T04:13:18.588Z,29.27
2022-09-15T04:15:45.021Z,29.63
2022-09-15T04:18:11.448Z,25.50
2022-09-15T04:20:40.922Z,25.83
2022-09-15T04:23:07.382Z,28.48
2022-09-15T04:25:33.912Z,25.92
2022-09-15T04:28:00.547Z,23.00
2022-09-15T04:30:26.973Z,26.48
2022-09-15T04:32:53.942Z,27.80
2022-09-15T04:35:21.996Z,25.92
2022-09-15T04:37:48.589Z,23.13
2022-09-15T04:40:15.231Z,24.40
2022-09-15T04:42:41.713Z,21.30
2022-09-15T04:45:08.665Z,24.15
2022-09-15T04:47:35.143Z,22.42
2022-09-15T04:50:01.941Z,22.52
2022-09-15T04:52:28.449Z,23.60
2022-09-15T04:54:54.891Z,22.13
2022-09-15T04:57:21.306Z,24.63
2022-09-15T04:59:47.750Z,22.25
2022-09-15T05:02:14.286Z,23.42
2022-09-15T05:04:40.838Z,25.33
2022-09-15T05:07:07.320Z,23.25
2022-09-15T05:09:33.834Z,21.05
2022-09-15T05:12:00.329Z,23.00
2022-09-15T05:14:26.777Z,18.80
2022-09-15T05:16:53.229Z,24.05
2022-09-15T05:19:19.681Z,21.02
2022-09-15T05:21:46.109Z,22.83
2022-09-15T05:24:12.581Z,22.17
2022-09-15T05:26:39.355Z,21.70
2022-09-15T05:29:05.813Z,19.77
2022-09-15T05:31:36.663Z,23.88
2022-09-15T05:34:05.351Z,26.70
2022-09-15T05:36:32.333Z,36.83
2022-09-15T05:38:59.148Z,22.98
2022-09-15T05:41:27.418Z,23.90
2022-09-15T05:43:59.730Z,27.15
2022-09-15T05:46:27.527Z,19.60
2022-09-15T05:48:56.574Z,26.55
2022-09-15T05:51:23.620Z,26.80
2022-09-15T05:53:50.969Z,25.75
2022-09-15T05:56:19.082Z,26.00
2022-09-15T05:58:47.541Z,22.42
2022-09-15T06:01:25.607Z,23.13
2022-09-15T06:03:53.400Z,24.17
2022-09-15T06:06:22.006Z,21.63
2022-09-15T06:08:55.607Z,24.27
2022-09-15T06:11:29.650Z,21.25
2022-09-15T06:14:00.089Z,20.70
2022-09-15T06:16:26.959Z,21.67
2022-09-15T06:18:54.265Z,24.90
2022-09-15T06:21:23.775Z,20.27
2022-09-15T06:23:55.411Z,19.00
2022-09-15T06:26:23.046Z,20.50
2022-09-15T06:28:50.622Z,22.23
2022-09-15T06:31:18.332Z,22.60
2022-09-15T06:33:47.421Z,19.63
2022-09-15T06:36:15.841Z,20.20
2022-09-15T06:38:43.127Z,21.08
2022-09-15T06:41:10.516Z,18.88
2022-09-15T06:43:37.343Z,19.95
2022-09-15T06:46:06.109Z,21.17
2022-09-15T06:48:32.698Z,16.13
2022-09-15T06:51:00.352Z,15.48
2022-09-15T06:53:30.825Z,18.42
2022-09-15T06:56:16.843Z,20.67
2022-09-15T06:58:44.924Z,15.68
2022-09-15T07:01:14.822Z,17.90
2022-09-15T07:03:43.940Z,18.35
2022-09-15T07:06:12.185Z,18.08
2022-09-15T07:08:39.808Z,17.08
2022-09-15T07:11:07.265Z,15.45
2022-09-15T07:13:33.673Z,14.88
2022-09-15T07:16:03.552Z,12.23
2022-09-15T07:18:31.063Z,13.82
2022-09-15T07:21:09.321Z,17.88
2022-09-15T07:23:36.301Z,14.05
2022-09-15T07:26:23.789Z,16.08
2022-09-15T07:28:53.771Z,14.60
2022-09-15T07:31:23.146Z,17.58
2022-09-15T07:33:49.797Z,14.88
2022-09-15T07:36:16.682Z,16.30
2022-09-15T07:38:45.701Z,16.90
2022-09-15T07:41:15.109Z,13.57
2022-09-15T07:43:49.432Z,17.58
2022-09-15T07:46:17.296Z,15.02
2022-09-15T07:48:47.836Z,12.32
2022-09-15T07:51:15.527Z,15.45
2022-09-15T07:53:42.891Z,17.63
2022-09-15T07:56:10.051Z,15.27
2022-09-15T07:58:36.591Z,16.50
2022-09-15T08:01:08.119Z,17.33
2022-09-15T08:03:34.621Z,11.68
2022-09-15T08:06:02.905Z,16.85
2022-09-15T08:08:30.270Z,12.52
2022-09-15T08:10:56.808Z,11.30
2022-09-15T08:13:24.289Z,10.38
2022-09-15T08:15:52.203Z,12.25
2022-09-15T08:18:18.725Z,13.55
2022-09-15T08:20:45.192Z,12.70
2022-09-15T08:23:11.936Z,12.70
2022-09-15T08:25:39.565Z,14.77
2022-09-15T08:28:06.156Z,12.60
2022-09-15T08:30:32.916Z,11.27
2022-09-15T08:32:59.327Z,9.45
2022-09-15T08:35:25.842Z,10.25
2022-09-15T08:37:54.281Z,6.20
2022-09-15T08:40:26.633Z,13.90
2022-09-15T08:42:57.578Z,8.63
2022-09-15T08:45:35.554Z,11.45
2022-09-15T08:48:04.954Z,7.60
2022-09-15T08:50:44.858Z,8.75
2022-09-15T08:53:20.026Z,8.45
2022-09-15T08:55:52.669Z,10.65
2022-09-15T08:58:21.797Z,13.70
2022-09-15T09:00:51.936Z,11.73
2022-09-15T09:03:33.585Z,7.43
2022-09-15T09:06:24.095Z,5.40
2022-09-15T09:08:50.546Z,9.00
2022-09-15T09:11:43.134Z,7.65
2022-09-15T09:14:36.967Z,12.70
2022-09-15T09:17:14.692Z,9.57
2022-09-15T09:19:57.582Z,11.32
2022-09-15T09:22:27.998Z,5.63
2022-09-15T09:24:57.873Z,10.25
2022-09-15T09:27:28.781Z,5.78
2022-09-15T09:30:03.882Z,7.57
2022-09-15T09:32:45.444Z,5.80
2022-09-15T09:35:14.857Z,9.50
2022-09-15T09:37:41.358Z,6.72
2022-09-15T09:40:15.766Z,11.00
2022-09-15T09:42:43.595Z,9.68
2022-09-15T09:45:15.541Z,6.88
2022-09-15T09:47:42.812Z,5.20
2022-09-15T09:50:32.422Z,4.47
2022-09-15T09:52:59.635Z,6.47
2022-09-15T09:55:28.135Z,7.38
2022-09-15T09:58:10.959Z,3.75
2022-09-15T10:00:39.685Z,7.35
2022-09-15T10:03:18.565Z,7.63
2022-09-15T10:06:00.151Z,7.90
2022-09-15T10:08:26.618Z,10.55
2022-09-15T10:10:55.114Z,8.18
2022-09-15T10:13:22.288Z,5.32
2022-09-15T10:15:59.381Z,5.63
2022-09-15T10:18:33.728Z,6.72
2022-09-15T10:21:02.240Z,7.25
2022-09-15T10:23:31.381Z,6.22
2022-09-15T10:26:17.729Z,5.35
2022-09-15T10:28:45.287Z,5.15
2022-09-15T10:31:13.661Z,8.27
2022-09-15T10:33:42.634Z,5.43
2022-09-15T10:36:15.602Z,8.32
2022-09-15T10:38:45.512Z,5.95
2022-09-15T10:41:25.965Z,6.75
2022-09-15T10:44:32.254Z,12.70
2022-09-15T10:47:17.354Z,8.73
2022-09-15T10:50:15.845Z,5.15
2022-09-15T10:52:54.091Z,6.13
2022-09-15T10:55:51.558Z,9.60
2022-09-15T10:58:43.490Z,6.78
2022-09-15T11:01:30.452Z,3.85
2022-09-15T11:04:12.181Z,7.03
2022-09-15T11:06:56.814Z,11.13
2022-09-15T11:09:58.781Z,6.57
2022-09-15T11:12:34.047Z,9.43
2022-09-15T11:15:25.437Z,6.35
2022-09-15T11:18:18.801Z,8.63
2022-09-15T11:21:07.218Z,8.90
2022-09-15T11:23:52.757Z,6.43
2022-09-15T11:26:31.577Z,10.13
2022-09-15T11:29:05.677Z,3.45
2022-09-15T11:31:41.029Z,10.65
2022-09-15T11:34:29.020Z,7.22
2022-09-15T11:37:25.419Z,5.32
2022-09-15T11:40:04.301Z,6.32
2022-09-15T11:42:40.157Z,4.68
2022-09-15T11:45:17.493Z,5.60
2022-09-15T11:47:50.413Z,5.80
2022-09-15T11:50:32.531Z,3.40
2022-09-15T11:53:30.940Z,7.45
2022-09-15T11:56:16.111Z,3.90
2022-09-15T11:59:01.430Z,3.35
2022-09-15T12:01:36.834Z,8.45
2022-09-15T12:04:26.983Z,8.95
2022-09-15T12:07:01.412Z,7.72
2022-09-15T12:09:29.197Z,3.33
2022-09-15T12:12:01.870Z,5.75
2022-09-15T12:14:40.891Z,4.72
2022-09-15T12:17:11.280Z,4.20
2022-09-15T12:20:23.899Z,3.53
2022-09-15T12:22:59.121Z,4.93
2022-09-15T12:25:59.721Z,4.45
2022-09-15T12:28:37.493Z,6.05
2022-09-15T12:31:25.231Z,4.00
2022-09-15T12:34:24.286Z,7.25
2022-09-15T12:36:54.157Z,8.40
2022-09-15T12:39:36.267Z,5.80
2022-09-15T12:42:10.707Z,5.50
2022-09-15T12:44:40.576Z,4.68
2022-09-15T12:47:28.522Z,1.20
2022-09-15T12:50:01.613Z,5.22
2022-09-15T12:52:29.275Z,4.18
2022-09-15T12:55:01.931Z,5.38
2022-09-15T12:57:30.277Z,2.72
2022-09-15T13:00:23.232Z,5.10
2022-09-15T13:02:51.532Z,3.92
2022-09-15T13:05:42.607Z,3.53
2022-09-15T13:08:33.379Z,2.50
2022-09-15T13:11:13.041Z,4.95
2022-09-15T13:13:48.623Z,6.07
2022-09-15T13:16:21.726Z,3.13
2022-09-15T13:18:55.893Z,2.92
2022-09-15T13:21:24.077Z,4.88
2022-09-15T13:23:54.257Z,4.15
2022-09-15T13:26:25.500Z,4.93
2022-09-15T13:28:55.731Z,5.13
2022-09-15T13:31:50.278Z,8.40
2022-09-15T13:35:13.674Z,4.57
2022-09-15T13:38:17.349Z,4.28
2022-09-15T13:41:02.176Z,6.07
2022-09-15T13:43:47.413Z,5.70
2022-09-15T13:46:48.942Z,5.63
2022-09-15T13:49:32.861Z,5.90
2022-09-15T13:52:12.648Z,4.72
2022-09-15T13:55:26.149Z,3.33
2022-09-15T14:00:56.040Z,9.07
2022-09-15T14:03:46.171Z,6.28
2022-09-15T14:06:16.741Z,6.20
2022-09-15T14:08:45.915Z,2.40
2022-09-15T14:11:15.711Z,7.75
2022-09-15T14:13:49.070Z,6.78
2022-09-15T14:16:39.657Z,6.13
2022-09-15T14:19:24.717Z,8.55
2022-09-15T14:21:53.760Z,3.38
2022-09-15T14:24:27.890Z,5.13
2022-09-15T14:26:54.512Z,5.60
2022-09-15T14:29:24.443Z,3.92
2022-09-15T14:31:51.260Z,3.22
2022-09-15T14:34:23.139Z,8.38
2022-09-15T14:37:07.633Z,3.80
2022-09-15T14:39:37.341Z,3.75
2022-09-15T14:42:23.139Z,4.97
2022-09-15T14:47:43.355Z,5.28
2022-09-15T14:50:21.476Z,7.55
2022-09-15T14:53:02.913Z,3.33
2022-09-15T14:55:32.090Z,5.43
2022-09-15T14:58:04.684Z,3.53
2022-09-15T15:00:53.450Z,5.47
2022-09-15T15:03:41.217Z,5.32
2022-09-15T15:06:33.064Z,2.50
2022-09-15T15:09:21.381Z,5.78
2022-09-15T15:11:51.310Z,6.32
2022-09-15T15:14:18.446Z,4.75
2022-09-15T15:16:56.740Z,6.15
2022-09-15T15:19:33.816Z,7.25
2022-09-15T15:22:08.098Z,2.72
2022-09-15T15:24:39.617Z,4.65
2022-09-15T15:27:25.212Z,5.20
2022-09-15T15:29:52.767Z,2.85
2022-09-15T15:32:25.108Z,6.32
2022-09-15T15:34:59.763Z,5.28
2022-09-15T15:37:29.764Z,4.20
2022-09-15T15:39:58.554Z,5.15
2022-09-15T15:42:26.643Z,3.03
2022-09-15T15:45:02.254Z,4.13
2022-09-15T15:47:32.189Z,4.07
2022-09-15T15:50:27.532Z,4.40
2022-09-15T15:52:54.577Z,6.10
2022-09-15T15:55:28.315Z,6.85
2022-09-15T15:57:55.997Z,4.65
2022-09-15T16:00:33.159Z,5.38
2022-09-15T16:02:59.658Z,6.70
2022-09-15T16:05:29.080Z,5.28
2022-09-15T16:10:28.074Z,3.78
2022-09-15T16:12:54.575Z,6.15
2022-09-15T16:15:21.439Z,4.05
2022-09-15T16:17:48.907Z,4.78
2022-09-15T16:20:16.602Z,6.63
2022-09-15T16:22:43.652Z,5.07
2022-09-15T16:25:18.215Z,7.90
2022-09-15T16:27:44.665Z,4.38
2022-09-15T16:30:12.090Z,4.68
2022-09-15T16:32:40.124Z,3.33
2022-09-15T16:35:29.736Z,4.45
2022-09-15T16:37:56.190Z,5.70
2022-09-15T16:40:22.676Z,4.57
2022-09-15T16:42:49.121Z,4.45
2022-09-15T16:45:28.571Z,6.55
2022-09-15T16:50:21.396Z,2.38
2022-09-15T16:52:47.932Z,5.53
2022-09-15T16:55:23.233Z,9.77
2022-09-15T16:57:50.442Z,8.93
2022-09-15T17:00:17.466Z,7.22
2022-09-15T17:02:44.150Z,6.13
2022-09-15T17:05:32.469Z,2.58
2022-09-15T17:07:58.913Z,3.45
2022-09-15T17:10:25.553Z,3.25
2022-09-15T17:12:52.334Z,1.95
2022-09-15T17:15:20.529Z,4.32
2022-09-15T17:17:47.680Z,2.55
2022-09-15T17:20:14.715Z,6.70
2022-09-15T17:22:41.688Z,3.20
2022-09-15T17:25:24.754Z,3.65
2022-09-15T17:27:51.744Z,2.53
2022-09-15T17:30:19.853Z,4.28
2022-09-15T17:32:46.802Z,2.45
2022-09-15T17:35:24.310Z,1.98
2022-09-15T17:37:51.764Z,4.95
2022-09-15T17:40:20.805Z,1.63
2022-09-15T17:42:47.778Z,3.72
2022-09-15T17:45:18.580Z,2.95
2022-09-15T17:47:45.081Z,3.60
2022-09-15T17:50:12.514Z,3.03
2022-09-15T17:52:39.115Z,2.70
2022-09-15T17:55:23.479Z,2.95
2022-09-15T17:57:50.067Z,5.30
2022-09-15T18:00:18.766Z,3.92
2022-09-15T18:02:49.138Z,3.83
2022-09-15T18:05:24.430Z,5.45
2022-09-15T18:07:53.691Z,3.47
2022-09-15T18:10:21.480Z,2.97
2022-09-15T18:12:50.119Z,2.13
2022-09-15T18:15:22.200Z,2.10
2022-09-15T18:17:49.868Z,2.55
2022-09-15T18:20:19.350Z,2.42
2022-09-15T18:22:47.108Z,5.35
2022-09-15T18:25:17.274Z,2.08
2022-09-15T18:27:44.189Z,4.50
2022-09-15T18:30:11.854Z,1.08
2022-09-15T18:32:38.264Z,3.72
2022-09-15T18:35:05.461Z,4.72
2022-09-15T18:37:31.866Z,1.48
2022-09-15T18:39:58.362Z,3.60
2022-09-15T18:42:27.310Z,3.42
2022-09-15T18:44:56.272Z,3.50
2022-09-15T18:47:22.707Z,2.03
2022-09-15T18:49:49.126Z,3.13
2022-09-15T18:52:15.565Z,2.95
2022-09-15T18:54:42.119Z,4.75
2022-09-15T18:57:09.671Z,1.75
2022-09-15T18:59:36.063Z,4.82
2022-09-15T19:02:02.688Z,4.50
2022-09-15T19:04:32.256Z,3.33
2022-09-15T19:06:59.817Z,2.15
2022-09-15T19:09:26.230Z,4.53
2022-09-15T19:11:52.666Z,3.38
2022-09-15T19:14:19.141Z,1.80
2022-09-15T19:16:57.716Z,6.22
2022-09-15T19:19:25.207Z,3.85
2022-09-15T19:21:51.818Z,2.20
2022-09-15T19:24:18.297Z,4.28
2022-09-15T19:26:47.184Z,0.68
2022-09-15T19:29:15.486Z,1.70
2022-09-15T19:31:42.328Z,4.80
2022-09-15T19:34:09.054Z,3.17
2022-09-15T19:36:35.534Z,2.22
2022-09-15T19:39:03.452Z,4.82
2022-09-15T19:41:30.650Z,4.13
2022-09-15T19:44:00.272Z,4.18
2022-09-15T19:48:53.805Z,2.90
2022-09-15T19:51:20.849Z,4.43
2022-09-15T19:53:47.978Z,3.03
2022-09-15T19:56:21.781Z,2.38
2022-09-15T19:58:49.317Z,5.32
2022-09-15T20:01:16.194Z,5.18
2022-09-15T20:03:42.903Z,1.00
2022-09-15T20:06:09.415Z,2.28
2022-09-15T20:08:36.511Z,2.90
2022-09-15T20:11:07.461Z,3.65
2022-09-15T20:13:39.157Z,4.20
2022-09-15T20:16:05.981Z,3.90
2022-09-15T20:18:36.511Z,4.03
2022-09-15T20:21:07.194Z,2.30
2022-09-15T20:23:34.221Z,4.45
2022-09-15T20:26:02.951Z,2.17
2022-09-15T20:28:29.894Z,3.57
2022-09-15T20:31:12.012Z,2.15
2022-09-15T20:33:41.060Z,4.38
2022-09-15T20:36:20.893Z,3.03
2022-09-15T20:38:47.684Z,6.22
2022-09-15T20:41:15.481Z,8.23
2022-09-15T20:43:42.548Z,3.40
2022-09-15T20:46:12.914Z,2.22
2022-09-15T20:48:39.845Z,3.47
2022-09-15T20:51:12.412Z,2.58
2022-09-15T20:53:40.978Z,4.30
2022-09-15T20:56:08.315Z,5.40
2022-09-15T20:58:36.477Z,3.65
2022-09-15T21:01:08.833Z,3.72
2022-09-15T21:03:37.140Z,5.28
2022-09-15T21:06:06.458Z,3.83
2022-09-15T21:08:33.725Z,5.88
2022-09-15T21:11:01.084Z,4.18
2022-09-15T21:13:29.959Z,2.95
2022-09-15T21:15:59.188Z,2.65
2022-09-15T21:18:27.223Z,2.72
2022-09-15T21:20:55.336Z,5.05
2022-09-15T21:23:21.982Z,4.68
2022-09-15T21:26:01.177Z,4.32
2022-09-15T21:28:28.809Z,2.88
2022-09-15T21:31:03.773Z,2.47
2022-09-15T21:33:31.449Z,3.85
2022-09-15T21:36:05.075Z,4.35
2022-09-15T21:38:31.838Z,6.80
2022-09-15T21:40:58.309Z,3.85
2022-09-15T21:43:29.050Z,7.63
2022-09-15T21:45:57.040Z,6.80
2022-09-15T21:48:24.148Z,6.60
2022-09-15T21:50:51.467Z,3.47
2022-09-15T21:53:20.066Z,3.65
2022-09-15T21:55:50.253Z,4.85
2022-09-15T21:58:19.126Z,4.35
2022-09-15T22:00:46.842Z,7.18
2022-09-15T22:03:13.797Z,2.72
2022-09-15T22:05:41.468Z,5.85
2022-09-15T22:08:11.383Z,4.32
2022-09-15T22:10:38.412Z,5.97
2022-09-15T22:13:06.759Z,6.88
2022-09-15T22:15:33.795Z,3.63
2022-09-15T22:18:00.662Z,3.38
2022-09-15T22:20:28.183Z,2.83
2022-09-15T22:23:01.159Z,2.65
2022-09-15T22:25:27.683Z,6.28
2022-09-15T22:27:54.186Z,3.00
2022-09-15T22:30:20.625Z,4.07
2022-09-15T22:32:47.492Z,2.10
2022-09-15T22:35:13.984Z,4.30
2022-09-15T22:37:40.473Z,2.58
2022-09-15T22:40:07.405Z,7.15
2022-09-15T22:42:33.868Z,1.92
2022-09-15T22:45:00.308Z,7.28
2022-09-15T22:47:26.772Z,2.58
2022-09-15T22:49:53.284Z,4.05
2022-09-15T22:52:21.092Z,3.20
2022-09-15T22:54:47.512Z,5.07
2022-09-15T22:57:13.942Z,5.38
2022-09-15T22:59:40.379Z,4.18
2022-09-15T23:02:06.923Z,5.95
2022-09-15T23:04:33.464Z,10.48
2022-09-15T23:06:59.909Z,4.63
2022-09-15T23:09:26.458Z,5.28
2022-09-15T23:11:52.886Z,2.47
2022-09-15T23:14:19.357Z,2.75
2022-09-15T23:16:45.895Z,4.85
2022-09-15T23:19:13.649Z,3.92
2022-09-15T23:21:40.193Z,3.92
2022-09-15T23:24:06.894Z,5.03
2022-09-15T23:26:33.692Z,5.35
2022-09-15T23:29:00.261Z,5.60
2022-09-15T23:31:26.784Z,3.13
2022-09-15T23:33:53.254Z,4.55
2022-09-15T23:36:19.971Z,4.43
2022-09-15T23:38:47.177Z,3.17
2022-09-15T23:41:15.032Z,6.85
2022-09-15T23:43:41.522Z,3.80
2022-09-15T23:46:08.052Z,5.78
2022-09-15T23:48:34.517Z,6.55
2022-09-15T23:51:01.745Z,4.65
2022-09-15T23:53:28.803Z,5.18
2022-09-15T23:55:55.273Z,3.33
2022-09-15T23:58:21.732Z,2.97
